sensor_id;sensor_type;location;lat;lon;timestamp;P1;durP1;ratioP1;P2;durP2;ratioP2
26253;SDS011;53339;51.378;0.094;2024-03-22T00:01:55;17.15;;;7.07;;
26253;SDS011;53339;51.378;0.094;2024-03-22T00:04:22;18.42;;;10.50;;
26253;SDS011;53339;51.378;0.094;2024-03-22T00:06:49;15.60;;;8.05;;
26253;SDS011;53339;51.378;0.094;2024-03-22T00:09:16;17.38;;;9.02;;
26253;SDS011;53339;51.378;0.094;2024-03-22T00:11:43;19.52;;;10.70;;
26253;SDS011;53339;51.378;0.094;2024-03-22T00:14:10;18.25;;;10.73;;
26253;SDS011;53339;51.378;0.094;2024-03-22T00:16:38;20.85;;;9.25;;
26253;SDS011;53339;51.378;0.094;2024-03-22T00:19:05;17.20;;;8.02;;
26253;SDS011;53339;51.378;0.094;2024-03-22T00:21:31;17.92;;;10.55;;
26253;SDS011;53339;51.378;0.094;2024-03-22T00:23:58;21.10;;;10.60;;
26253;SDS011;53339;51.378;0.094;2024-03-22T00:26:27;24.30;;;8.68;;
26253;SDS011;53339;51.378;0.094;2024-03-22T00:28:55;19.55;;;8.63;;
26253;SDS011;53339;51.378;0.094;2024-03-22T00:31:24;20.38;;;9.50;;
26253;SDS011;53339;51.378;0.094;2024-03-22T00:33:51;20.80;;;10.32;;
26253;SDS011;53339;51.378;0.094;2024-03-22T00:36:17;17.63;;;7.95;;
26253;SDS011;53339;51.378;0.094;2024-03-22T00:38:44;18.27;;;10.48;;
26253;SDS011;53339;51.378;0.094;2024-03-22T00:41:12;17.63;;;9.10;;
26253;SDS011;53339;51.378;0.094;2024-03-22T00:43:39;21.40;;;10.48;;
26253;SDS011;53339;51.378;0.094;2024-03-22T00:46:06;21.58;;;11.80;;
26253;SDS011;53339;51.378;0.094;2024-03-22T00:48:33;20.60;;;9.98;;
26253;SDS011;53339;51.378;0.094;2024-03-22T00:51:03;18.80;;;7.60;;
26253;SDS011;53339;51.378;0.094;2024-03-22T00:53:30;18.80;;;8.15;;
26253;SDS011;53339;51.378;0.094;2024-03-22T00:55:56;19.40;;;9.50;;
26253;SDS011;53339;51.378;0.094;2024-03-22T00:58:26;17.52;;;7.10;;
26253;SDS011;53339;51.378;0.094;2024-03-22T01:00:54;14.00;;;7.07;;
26253;SDS011;53339;51.378;0.094;2024-03-22T01:03:21;16.83;;;8.07;;
26253;SDS011;53339;51.378;0.094;2024-03-22T01:05:48;16.33;;;9.13;;
26253;SDS011;53339;51.378;0.094;2024-03-22T01:08:14;13.80;;;6.47;;
26253;SDS011;53339;51.378;0.094;2024-03-22T01:10:41;21.02;;;9.35;;
26253;SDS011;53339;51.378;0.094;2024-03-22T01:13:08;18.23;;;9.80;;
26253;SDS011;53339;51.378;0.094;2024-03-22T01:15:35;13.05;;;5.88;;
26253;SDS011;53339;51.378;0.094;2024-03-22T01:18:01;13.52;;;5.93;;
26253;SDS011;53339;51.378;0.094;2024-03-22T01:20:28;12.43;;;6.32;;
26253;SDS011;53339;51.378;0.094;2024-03-22T01:22:56;10.45;;;5.57;;
26253;SDS011;53339;51.378;0.094;2024-03-22T01:25:22;8.80;;;7.15;;
26253;SDS011;53339;51.378;0.094;2024-03-22T01:27:49;11.93;;;5.43;;
26253;SDS011;53339;51.378;0.094;2024-03-22T01:30:15;15.05;;;7.95;;
26253;SDS011;53339;51.378;0.094;2024-03-22T01:32:42;12.82;;;5.57;;
26253;SDS011;53339;51.378;0.094;2024-03-22T01:35:09;10.77;;;6.68;;
26253;SDS011;53339;51.378;0.094;2024-03-22T01:37:35;14.32;;;5.25;;
26253;SDS011;53339;51.378;0.094;2024-03-22T01:40:03;11.10;;;5.10;;
26253;SDS011;53339;51.378;0.094;2024-03-22T01:42:30;11.55;;;6.68;;
26253;SDS011;53339;51.378;0.094;2024-03-22T01:44:57;8.57;;;6.57;;
26253;SDS011;53339;51.378;0.094;2024-03-22T01:47:24;13.20;;;5.65;;
26253;SDS011;53339;51.378;0.094;2024-03-22T01:49:51;14.48;;;7.18;;
26253;SDS011;53339;51.378;0.094;2024-03-22T01:52:21;15.50;;;7.45;;
26253;SDS011;53339;51.378;0.094;2024-03-22T01:54:48;11.98;;;5.88;;
26253;SDS011;53339;51.378;0.094;2024-03-22T01:57:15;12.52;;;8.13;;
26253;SDS011;53339;51.378;0.094;2024-03-22T01:59:42;10.90;;;6.50;;
26253;SDS011;53339;51.378;0.094;2024-03-22T02:02:09;13.13;;;8.77;;
26253;SDS011;53339;51.378;0.094;2024-03-22T02:04:37;12.95;;;5.88;;
26253;SDS011;53339;51.378;0.094;2024-03-22T02:07:04;17.45;;;9.65;;
26253;SDS011;53339;51.378;0.094;2024-03-22T02:09:30;12.95;;;6.18;;
26253;SDS011;53339;51.378;0.094;2024-03-22T02:11:57;15.73;;;6.75;;
26253;SDS011;53339;51.378;0.094;2024-03-22T02:14:24;13.30;;;5.80;;
26253;SDS011;53339;51.378;0.094;2024-03-22T02:16:51;11.48;;;7.50;;
26253;SDS011;53339;51.378;0.094;2024-03-22T02:19:18;14.75;;;7.55;;
26253;SDS011;53339;51.378;0.094;2024-03-22T02:21:45;12.57;;;5.90;;
26253;SDS011;53339;51.378;0.094;2024-03-22T02:24:11;12.35;;;8.77;;
26253;SDS011;53339;51.378;0.094;2024-03-22T02:26:38;14.52;;;5.93;;
26253;SDS011;53339;51.378;0.094;2024-03-22T02:29:05;11.10;;;5.68;;
26253;SDS011;53339;51.378;0.094;2024-03-22T02:31:31;13.80;;;6.95;;
26253;SDS011;53339;51.378;0.094;2024-03-22T02:33:58;11.45;;;6.15;;
26253;SDS011;53339;51.378;0.094;2024-03-22T02:36:26;8.02;;;6.30;;
26253;SDS011;53339;51.378;0.094;2024-03-22T02:38:53;6.72;;;5.47;;
26253;SDS011;53339;51.378;0.094;2024-03-22T02:41:20;14.18;;;8.10;;
26253;SDS011;53339;51.378;0.094;2024-03-22T02:43:48;7.55;;;3.63;;
26253;SDS011;53339;51.378;0.094;2024-03-22T02:46:15;8.98;;;4.38;;
26253;SDS011;53339;51.378;0.094;2024-03-22T02:48:41;12.98;;;7.03;;
26253;SDS011;53339;51.378;0.094;2024-03-22T02:51:08;14.32;;;8.80;;
26253;SDS011;53339;51.378;0.094;2024-03-22T02:53:37;11.52;;;10.32;;
26253;SDS011;53339;51.378;0.094;2024-03-22T02:56:04;11.93;;;5.32;;
26253;SDS011;53339;51.378;0.094;2024-03-22T02:58:31;9.55;;;5.10;;
26253;SDS011;53339;51.378;0.094;2024-03-22T03:00:57;11.15;;;7.30;;
26253;SDS011;53339;51.378;0.094;2024-03-22T03:03:24;10.75;;;5.15;;
26253;SDS011;53339;51.378;0.094;2024-03-22T03:05:51;13.48;;;8.60;;
26253;SDS011;53339;51.378;0.094;2024-03-22T03:08:18;15.98;;;8.20;;
26253;SDS011;53339;51.378;0.094;2024-03-22T03:10:45;14.68;;;8.73;;
26253;SDS011;53339;51.378;0.094;2024-03-22T03:13:11;10.68;;;5.28;;
26253;SDS011;53339;51.378;0.094;2024-03-22T03:15:38;12.85;;;8.23;;
26253;SDS011;53339;51.378;0.094;2024-03-22T03:18:05;14.68;;;9.07;;
26253;SDS011;53339;51.378;0.094;2024-03-22T03:20:31;11.32;;;6.95;;
26253;SDS011;53339;51.378;0.094;2024-03-22T03:22:58;10.32;;;5.78;;
26253;SDS011;53339;51.378;0.094;2024-03-22T03:25:25;13.45;;;7.43;;
26253;SDS011;53339;51.378;0.094;2024-03-22T03:27:52;12.13;;;7.55;;
26253;SDS011;53339;51.378;0.094;2024-03-22T03:30:19;10.82;;;4.82;;
26253;SDS011;53339;51.378;0.094;2024-03-22T03:32:46;12.63;;;6.82;;
26253;SDS011;53339;51.378;0.094;2024-03-22T03:35:12;10.55;;;5.50;;
26253;SDS011;53339;51.378;0.094;2024-03-22T03:37:39;9.75;;;5.28;;
26253;SDS011;53339;51.378;0.094;2024-03-22T03:40:06;9.75;;;5.97;;
26253;SDS011;53339;51.378;0.094;2024-03-22T03:42:33;12.48;;;6.90;;
26253;SDS011;53339;51.378;0.094;2024-03-22T03:45:00;11.75;;;5.47;;
26253;SDS011;53339;51.378;0.094;2024-03-22T03:47:26;9.40;;;6.63;;
26253;SDS011;53339;51.378;0.094;2024-03-22T03:49:53;8.95;;;6.45;;
26253;SDS011;53339;51.378;0.094;2024-03-22T03:52:20;9.95;;;5.03;;
26253;SDS011;53339;51.378;0.094;2024-03-22T03:54:46;10.40;;;6.35;;
26253;SDS011;53339;51.378;0.094;2024-03-22T03:57:13;10.20;;;4.43;;
26253;SDS011;53339;51.378;0.094;2024-03-22T03:59:40;11.45;;;4.82;;
26253;SDS011;53339;51.378;0.094;2024-03-22T04:02:06;12.57;;;7.63;;
26253;SDS011;53339;51.378;0.094;2024-03-22T04:04:33;11.70;;;5.20;;
26253;SDS011;53339;51.378;0.094;2024-03-22T04:07:00;9.98;;;4.40;;
26253;SDS011;53339;51.378;0.094;2024-03-22T04:09:26;12.73;;;6.68;;
26253;SDS011;53339;51.378;0.094;2024-03-22T04:11:53;13.40;;;5.10;;
26253;SDS011;53339;51.378;0.094;2024-03-22T04:14:20;12.27;;;6.78;;
26253;SDS011;53339;51.378;0.094;2024-03-22T04:16:46;15.80;;;7.20;;
26253;SDS011;53339;51.378;0.094;2024-03-22T04:19:13;14.77;;;5.43;;
26253;SDS011;53339;51.378;0.094;2024-03-22T04:21:40;11.63;;;5.85;;
26253;SDS011;53339;51.378;0.094;2024-03-22T04:24:06;11.95;;;5.78;;
26253;SDS011;53339;51.378;0.094;2024-03-22T04:26:33;15.98;;;6.68;;
26253;SDS011;53339;51.378;0.094;2024-03-22T04:29:00;10.88;;;5.10;;
26253;SDS011;53339;51.378;0.094;2024-03-22T04:31:27;12.93;;;7.53;;
26253;SDS011;53339;51.378;0.094;2024-03-22T04:33:53;14.48;;;8.13;;
26253;SDS011;53339;51.378;0.094;2024-03-22T04:36:20;13.57;;;8.77;;
26253;SDS011;53339;51.378;0.094;2024-03-22T04:38:46;12.43;;;6.80;;
26253;SDS011;53339;51.378;0.094;2024-03-22T04:41:14;13.75;;;7.78;;
26253;SDS011;53339;51.378;0.094;2024-03-22T04:43:41;13.15;;;8.52;;
26253;SDS011;53339;51.378;0.094;2024-03-22T04:46:07;15.93;;;7.53;;
26253;SDS011;53339;51.378;0.094;2024-03-22T04:48:34;11.82;;;4.65;;
26253;SDS011;53339;51.378;0.094;2024-03-22T04:51:01;10.68;;;5.80;;
26253;SDS011;53339;51.378;0.094;2024-03-22T04:53:27;15.80;;;8.82;;
26253;SDS011;53339;51.378;0.094;2024-03-22T04:55:54;12.60;;;5.57;;
26253;SDS011;53339;51.378;0.094;2024-03-22T04:58:21;12.43;;;6.35;;
26253;SDS011;53339;51.378;0.094;2024-03-22T05:00:48;13.82;;;7.55;;
26253;SDS011;53339;51.378;0.094;2024-03-22T05:03:16;12.48;;;7.18;;
26253;SDS011;53339;51.378;0.094;2024-03-22T05:05:43;12.45;;;5.40;;
26253;SDS011;53339;51.378;0.094;2024-03-22T05:08:10;12.88;;;9.13;;
26253;SDS011;53339;51.378;0.094;2024-03-22T05:10:36;12.45;;;7.28;;
26253;SDS011;53339;51.378;0.094;2024-03-22T05:13:03;11.95;;;4.53;;
26253;SDS011;53339;51.378;0.094;2024-03-22T05:15:30;11.68;;;5.13;;
26253;SDS011;53339;51.378;0.094;2024-03-22T05:17:57;12.48;;;8.73;;
26253;SDS011;53339;51.378;0.094;2024-03-22T05:20:24;17.70;;;5.43;;
26253;SDS011;53339;51.378;0.094;2024-03-22T05:22:51;15.35;;;8.68;;
26253;SDS011;53339;51.378;0.094;2024-03-22T05:25:20;14.23;;;4.97;;
26253;SDS011;53339;51.378;0.094;2024-03-22T05:27:47;11.15;;;6.25;;
26253;SDS011;53339;51.378;0.094;2024-03-22T05:30:14;14.85;;;7.35;;
26253;SDS011;53339;51.378;0.094;2024-03-22T05:32:41;14.15;;;5.00;;
26253;SDS011;53339;51.378;0.094;2024-03-22T05:35:07;10.95;;;5.00;;
26253;SDS011;53339;51.378;0.094;2024-03-22T05:37:34;13.00;;;8.15;;
26253;SDS011;53339;51.378;0.094;2024-03-22T05:40:01;12.32;;;4.88;;
26253;SDS011;53339;51.378;0.094;2024-03-22T05:42:30;11.95;;;6.30;;
26253;SDS011;53339;51.378;0.094;2024-03-22T05:44:57;10.70;;;6.82;;
26253;SDS011;53339;51.378;0.094;2024-03-22T05:47:24;9.90;;;4.65;;
26253;SDS011;53339;51.378;0.094;2024-03-22T05:49:50;11.10;;;6.95;;
26253;SDS011;53339;51.378;0.094;2024-03-22T05:52:18;10.85;;;5.57;;
26253;SDS011;53339;51.378;0.094;2024-03-22T05:54:45;9.70;;;5.55;;
26253;SDS011;53339;51.378;0.094;2024-03-22T05:57:12;9.75;;;5.63;;
26253;SDS011;53339;51.378;0.094;2024-03-22T05:59:39;13.75;;;7.30;;
26253;SDS011;53339;51.378;0.094;2024-03-22T06:02:05;5.57;;;3.35;;
26253;SDS011;53339;51.378;0.094;2024-03-22T06:04:32;10.27;;;5.10;;
26253;SDS011;53339;51.378;0.094;2024-03-22T06:06:59;11.05;;;6.40;;
26253;SDS011;53339;51.378;0.094;2024-03-22T06:09:26;10.73;;;7.28;;
26253;SDS011;53339;51.378;0.094;2024-03-22T06:12:13;7.90;;;4.28;;
26253;SDS011;53339;51.378;0.094;2024-03-22T06:14:41;10.45;;;3.65;;
26253;SDS011;53339;51.378;0.094;2024-03-22T06:17:11;10.57;;;4.53;;
26253;SDS011;53339;51.378;0.094;2024-03-22T06:19:37;7.88;;;3.55;;
26253;SDS011;53339;51.378;0.094;2024-03-22T06:22:04;10.95;;;5.95;;
26253;SDS011;53339;51.378;0.094;2024-03-22T06:24:30;9.15;;;7.53;;
26253;SDS011;53339;51.378;0.094;2024-03-22T06:26:57;11.07;;;6.97;;
26253;SDS011;53339;51.378;0.094;2024-03-22T06:29:24;9.80;;;5.20;;
26253;SDS011;53339;51.378;0.094;2024-03-22T06:31:51;10.18;;;5.22;;
26253;SDS011;53339;51.378;0.094;2024-03-22T06:34:18;7.63;;;4.10;;
26253;SDS011;53339;51.378;0.094;2024-03-22T06:36:45;10.38;;;7.45;;
26253;SDS011;53339;51.378;0.094;2024-03-22T06:39:13;8.85;;;5.50;;
26253;SDS011;53339;51.378;0.094;2024-03-22T06:41:40;10.43;;;4.00;;
26253;SDS011;53339;51.378;0.094;2024-03-22T06:44:07;8.95;;;3.88;;
26253;SDS011;53339;51.378;0.094;2024-03-22T06:46:38;9.27;;;4.45;;
26253;SDS011;53339;51.378;0.094;2024-03-22T06:49:06;9.43;;;4.15;;
26253;SDS011;53339;51.378;0.094;2024-03-22T06:51:32;11.35;;;4.57;;
26253;SDS011;53339;51.378;0.094;2024-03-22T06:53:59;10.82;;;6.60;;
26253;SDS011;53339;51.378;0.094;2024-03-22T06:56:26;11.30;;;4.15;;
26253;SDS011;53339;51.378;0.094;2024-03-22T06:58:53;4.25;;;2.13;;
26253;SDS011;53339;51.378;0.094;2024-03-22T07:01:19;8.25;;;4.18;;
26253;SDS011;53339;51.378;0.094;2024-03-22T07:03:46;10.05;;;6.05;;
26253;SDS011;53339;51.378;0.094;2024-03-22T07:06:14;8.05;;;3.70;;
26253;SDS011;53339;51.378;0.094;2024-03-22T07:08:41;15.57;;;6.10;;
26253;SDS011;53339;51.378;0.094;2024-03-22T07:11:07;6.10;;;4.75;;
26253;SDS011;53339;51.378;0.094;2024-03-22T07:13:35;7.95;;;3.67;;
26253;SDS011;53339;51.378;0.094;2024-03-22T07:16:02;9.73;;;4.68;;
26253;SDS011;53339;51.378;0.094;2024-03-22T07:18:30;9.85;;;3.65;;
26253;SDS011;53339;51.378;0.094;2024-03-22T07:20:56;14.93;;;5.53;;
26253;SDS011;53339;51.378;0.094;2024-03-22T07:23:27;8.70;;;3.40;;
26253;SDS011;53339;51.378;0.094;2024-03-22T07:25:54;9.40;;;3.65;;
26253;SDS011;53339;51.378;0.094;2024-03-22T07:28:21;9.45;;;5.75;;
26253;SDS011;53339;51.378;0.094;2024-03-22T07:30:47;8.48;;;3.13;;
26253;SDS011;53339;51.378;0.094;2024-03-22T07:33:14;9.07;;;4.88;;
26253;SDS011;53339;51.378;0.094;2024-03-22T07:35:44;10.25;;;5.65;;
26253;SDS011;53339;51.378;0.094;2024-03-22T07:38:10;7.93;;;3.22;;
26253;SDS011;53339;51.378;0.094;2024-03-22T07:40:37;11.93;;;5.75;;
26253;SDS011;53339;51.378;0.094;2024-03-22T07:43:04;10.18;;;3.60;;
26253;SDS011;53339;51.378;0.094;2024-03-22T07:45:33;6.80;;;4.88;;
26253;SDS011;53339;51.378;0.094;2024-03-22T07:48:01;8.50;;;3.50;;
26253;SDS011;53339;51.378;0.094;2024-03-22T07:50:28;9.93;;;3.35;;
26253;SDS011;53339;51.378;0.094;2024-03-22T07:52:55;6.00;;;4.15;;
26253;SDS011;53339;51.378;0.094;2024-03-22T07:55:22;3.90;;;1.73;;
26253;SDS011;53339;51.378;0.094;2024-03-22T07:57:49;15.13;;;5.97;;
26253;SDS011;53339;51.378;0.094;2024-03-22T08:00:16;11.35;;;3.58;;
26253;SDS011;53339;51.378;0.094;2024-03-22T08:02:43;7.53;;;4.32;;
26253;SDS011;53339;51.378;0.094;2024-03-22T08:05:10;11.68;;;2.97;;
26253;SDS011;53339;51.378;0.094;2024-03-22T08:07:37;9.38;;;4.32;;
26253;SDS011;53339;51.378;0.094;2024-03-22T08:10:04;9.43;;;3.22;;
26253;SDS011;53339;51.378;0.094;2024-03-22T08:12:31;8.82;;;3.03;;
26253;SDS011;53339;51.378;0.094;2024-03-22T08:14:57;4.70;;;2.60;;
26253;SDS011;53339;51.378;0.094;2024-03-22T08:17:24;7.78;;;4.30;;
26253;SDS011;53339;51.378;0.094;2024-03-22T08:19:51;6.95;;;5.03;;
26253;SDS011;53339;51.378;0.094;2024-03-22T08:22:18;8.48;;;5.03;;
26253;SDS011;53339;51.378;0.094;2024-03-22T08:24:47;6.57;;;2.78;;
26253;SDS011;53339;51.378;0.094;2024-03-22T08:27:14;7.68;;;3.22;;
26253;SDS011;53339;51.378;0.094;2024-03-22T08:29:41;9.95;;;3.42;;
26253;SDS011;53339;51.378;0.094;2024-03-22T08:32:08;9.75;;;6.68;;
26253;SDS011;53339;51.378;0.094;2024-03-22T08:34:34;10.93;;;4.55;;
26253;SDS011;53339;51.378;0.094;2024-03-22T08:37:04;6.65;;;5.55;;
26253;SDS011;53339;51.378;0.094;2024-03-22T08:39:30;9.85;;;3.47;;
26253;SDS011;53339;51.378;0.094;2024-03-22T08:41:57;9.88;;;4.90;;
26253;SDS011;53339;51.378;0.094;2024-03-22T08:44:24;7.85;;;5.22;;
26253;SDS011;53339;51.378;0.094;2024-03-22T08:46:51;6.97;;;4.45;;
26253;SDS011;53339;51.378;0.094;2024-03-22T08:49:18;9.20;;;3.03;;
26253;SDS011;53339;51.378;0.094;2024-03-22T08:51:45;8.60;;;5.55;;
26253;SDS011;53339;51.378;0.094;2024-03-22T08:54:12;8.30;;;4.15;;
26253;SDS011;53339;51.378;0.094;2024-03-22T08:56:39;7.85;;;4.20;;
26253;SDS011;53339;51.378;0.094;2024-03-22T08:59:05;5.63;;;3.83;;
26253;SDS011;53339;51.378;0.094;2024-03-22T09:01:32;13.68;;;5.03;;
26253;SDS011;53339;51.378;0.094;2024-03-22T09:03:59;6.10;;;4.07;;
26253;SDS011;53339;51.378;0.094;2024-03-22T09:06:25;5.60;;;3.95;;
26253;SDS011;53339;51.378;0.094;2024-03-22T09:08:52;8.48;;;4.55;;
26253;SDS011;53339;51.378;0.094;2024-03-22T09:11:24;9.18;;;3.13;;
26253;SDS011;53339;51.378;0.094;2024-03-22T09:13:52;8.20;;;5.35;;
26253;SDS011;53339;51.378;0.094;2024-03-22T09:16:19;7.32;;;3.10;;
26253;SDS011;53339;51.378;0.094;2024-03-22T09:18:47;7.22;;;2.92;;
26253;SDS011;53339;51.378;0.094;2024-03-22T09:21:13;8.32;;;5.13;;
26253;SDS011;53339;51.378;0.094;2024-03-22T09:23:40;7.85;;;3.00;;
26253;SDS011;53339;51.378;0.094;2024-03-22T09:26:07;8.02;;;3.50;;
26253;SDS011;53339;51.378;0.094;2024-03-22T09:28:34;5.95;;;2.67;;
26253;SDS011;53339;51.378;0.094;2024-03-22T09:31:04;9.57;;;5.35;;
26253;SDS011;53339;51.378;0.094;2024-03-22T09:33:34;8.82;;;4.43;;
26253;SDS011;53339;51.378;0.094;2024-03-22T09:36:02;6.95;;;3.72;;
26253;SDS011;53339;51.378;0.094;2024-03-22T09:38:29;4.68;;;2.22;;
26253;SDS011;53339;51.378;0.094;2024-03-22T09:40:55;7.85;;;3.95;;
26253;SDS011;53339;51.378;0.094;2024-03-22T09:43:22;5.38;;;3.17;;
26253;SDS011;53339;51.378;0.094;2024-03-22T09:45:50;4.85;;;2.53;;
26253;SDS011;53339;51.378;0.094;2024-03-22T09:48:18;5.97;;;3.58;;
26253;SDS011;53339;51.378;0.094;2024-03-22T09:50:48;7.60;;;4.28;;
26253;SDS011;53339;51.378;0.094;2024-03-22T09:53:19;5.43;;;2.10;;
26253;SDS011;53339;51.378;0.094;2024-03-22T09:55:48;4.68;;;2.55;;
26253;SDS011;53339;51.378;0.094;2024-03-22T09:58:15;5.50;;;4.35;;
26253;SDS011;53339;51.378;0.094;2024-03-22T10:00:45;5.22;;;2.13;;
26253;SDS011;53339;51.378;0.094;2024-03-22T10:03:13;8.35;;;5.07;;
26253;SDS011;53339;51.378;0.094;2024-03-22T10:05:40;4.75;;;2.28;;
26253;SDS011;53339;51.378;0.094;2024-03-22T10:08:06;6.68;;;4.40;;
26253;SDS011;53339;51.378;0.094;2024-03-22T10:10:33;6.03;;;4.10;;
26253;SDS011;53339;51.378;0.094;2024-03-22T10:13:01;5.97;;;4.22;;
26253;SDS011;53339;51.378;0.094;2024-03-22T10:15:29;5.18;;;4.28;;
26253;SDS011;53339;51.378;0.094;2024-03-22T10:17:57;9.10;;;5.78;;
26253;SDS011;53339;51.378;0.094;2024-03-22T10:20:24;4.75;;;2.00;;
26253;SDS011;53339;51.378;0.094;2024-03-22T10:22:55;5.00;;;2.65;;
26253;SDS011;53339;51.378;0.094;2024-03-22T10:25:24;5.15;;;2.28;;
26253;SDS011;53339;51.378;0.094;2024-03-22T10:27:53;4.88;;;2.40;;
26253;SDS011;53339;51.378;0.094;2024-03-22T10:30:20;7.18;;;4.53;;
26253;SDS011;53339;51.378;0.094;2024-03-22T10:32:50;4.65;;;2.75;;
26253;SDS011;53339;51.378;0.094;2024-03-22T10:35:17;6.13;;;2.00;;
26253;SDS011;53339;51.378;0.094;2024-03-22T10:37:44;4.80;;;2.92;;
26253;SDS011;53339;51.378;0.094;2024-03-22T10:40:11;6.22;;;4.28;;
26253;SDS011;53339;51.378;0.094;2024-03-22T10:42:41;5.22;;;2.78;;
26253;SDS011;53339;51.378;0.094;2024-03-22T10:45:09;5.65;;;2.92;;
26253;SDS011;53339;51.378;0.094;2024-03-22T10:47:36;6.63;;;4.88;;
26253;SDS011;53339;51.378;0.094;2024-03-22T10:50:07;5.38;;;4.35;;
26253;SDS011;53339;51.378;0.094;2024-03-22T10:52:40;5.65;;;4.32;;
26253;SDS011;53339;51.378;0.094;2024-03-22T10:55:24;4.53;;;2.92;;
26253;SDS011;53339;51.378;0.094;2024-03-22T10:58:14;5.47;;;2.17;;
26253;SDS011;53339;51.378;0.094;2024-03-22T11:00:46;7.50;;;2.53;;
26253;SDS011;53339;51.378;0.094;2024-03-22T11:03:19;6.43;;;4.32;;
26253;SDS011;53339;51.378;0.094;2024-03-22T11:05:53;6.30;;;4.85;;
26253;SDS011;53339;51.378;0.094;2024-03-22T11:08:27;6.13;;;2.83;;
26253;SDS011;53339;51.378;0.094;2024-03-22T11:10:56;6.18;;;3.10;;
26253;SDS011;53339;51.378;0.094;2024-03-22T11:13:23;5.78;;;3.25;;
26253;SDS011;53339;51.378;0.094;2024-03-22T11:15:50;5.13;;;1.98;;
26253;SDS011;53339;51.378;0.094;2024-03-22T11:18:18;6.20;;;4.00;;
26253;SDS011;53339;51.378;0.094;2024-03-22T11:20:45;4.50;;;2.55;;
26253;SDS011;53339;51.378;0.094;2024-03-22T11:23:13;3.95;;;2.70;;
26253;SDS011;53339;51.378;0.094;2024-03-22T11:25:40;5.55;;;2.97;;
26253;SDS011;53339;51.378;0.094;2024-03-22T11:28:07;5.05;;;2.22;;
26253;SDS011;53339;51.378;0.094;2024-03-22T11:30:33;4.93;;;2.55;;
26253;SDS011;53339;51.378;0.094;2024-03-22T11:33:02;5.47;;;2.28;;
26253;SDS011;53339;51.378;0.094;2024-03-22T11:35:30;4.88;;;3.17;;
26253;SDS011;53339;51.378;0.094;2024-03-22T11:37:57;6.57;;;4.47;;
26253;SDS011;53339;51.378;0.094;2024-03-22T11:40:25;6.55;;;4.90;;
26253;SDS011;53339;51.378;0.094;2024-03-22T11:42:53;5.93;;;2.58;;
26253;SDS011;53339;51.378;0.094;2024-03-22T11:45:21;4.85;;;2.55;;
26253;SDS011;53339;51.378;0.094;2024-03-22T11:47:49;7.95;;;2.55;;
26253;SDS011;53339;51.378;0.094;2024-03-22T11:50:16;9.00;;;2.78;;
26253;SDS011;53339;51.378;0.094;2024-03-22T11:52:43;8.43;;;3.92;;
26253;SDS011;53339;51.378;0.094;2024-03-22T11:55:13;5.35;;;2.47;;
26253;SDS011;53339;51.378;0.094;2024-03-22T11:57:41;4.97;;;2.22;;
26253;SDS011;53339;51.378;0.094;2024-03-22T12:00:07;8.15;;;2.85;;
26253;SDS011;53339;51.378;0.094;2024-03-22T12:02:40;7.32;;;2.92;;
26253;SDS011;53339;51.378;0.094;2024-03-22T12:05:07;6.18;;;3.83;;
26253;SDS011;53339;51.378;0.094;2024-03-22T12:07:36;9.27;;;3.05;;
26253;SDS011;53339;51.378;0.094;2024-03-22T12:10:04;6.18;;;2.45;;
26253;SDS011;53339;51.378;0.094;2024-03-22T12:12:31;5.47;;;3.13;;
26253;SDS011;53339;51.378;0.094;2024-03-22T12:14:58;6.47;;;2.78;;
26253;SDS011;53339;51.378;0.094;2024-03-22T12:17:25;6.28;;;2.50;;
26253;SDS011;53339;51.378;0.094;2024-03-22T12:19:52;8.93;;;4.68;;
26253;SDS011;53339;51.378;0.094;2024-03-22T12:22:19;8.43;;;4.38;;
26253;SDS011;53339;51.378;0.094;2024-03-22T12:24:45;10.52;;;3.33;;
26253;SDS011;53339;51.378;0.094;2024-03-22T12:27:12;8.27;;;1.88;;
26253;SDS011;53339;51.378;0.094;2024-03-22T12:29:39;6.45;;;2.63;;
26253;SDS011;53339;51.378;0.094;2024-03-22T12:32:06;6.82;;;2.83;;
26253;SDS011;53339;51.378;0.094;2024-03-22T12:34:33;9.30;;;2.22;;
26253;SDS011;53339;51.378;0.094;2024-03-22T12:37:03;6.93;;;3.88;;
26253;SDS011;53339;51.378;0.094;2024-03-22T12:39:29;8.77;;;3.35;;
26253;SDS011;53339;51.378;0.094;2024-03-22T12:41:58;11.55;;;4.35;;
26253;SDS011;53339;51.378;0.094;2024-03-22T12:44:25;11.32;;;3.53;;
26253;SDS011;53339;51.378;0.094;2024-03-22T12:46:52;4.70;;;2.13;;
26253;SDS011;53339;51.378;0.094;2024-03-22T12:49:20;10.93;;;4.03;;
26253;SDS011;53339;51.378;0.094;2024-03-22T12:51:47;9.20;;;2.47;;
26253;SDS011;53339;51.378;0.094;2024-03-22T12:54:13;8.50;;;4.30;;
26253;SDS011;53339;51.378;0.094;2024-03-22T12:56:41;16.85;;;2.83;;
26253;SDS011;53339;51.378;0.094;2024-03-22T12:59:08;8.55;;;4.25;;
26253;SDS011;53339;51.378;0.094;2024-03-22T13:01:34;10.30;;;2.38;;
26253;SDS011;53339;51.378;0.094;2024-03-22T13:04:03;8.25;;;1.92;;
26253;SDS011;53339;51.378;0.094;2024-03-22T13:06:29;10.55;;;1.67;;
26253;SDS011;53339;51.378;0.094;2024-03-22T13:08:56;12.25;;;2.65;;
26253;SDS011;53339;51.378;0.094;2024-03-22T13:11:23;9.38;;;4.28;;
26253;SDS011;53339;51.378;0.094;2024-03-22T13:13:50;12.65;;;2.40;;
26253;SDS011;53339;51.378;0.094;2024-03-22T13:16:16;6.85;;;4.80;;
26253;SDS011;53339;51.378;0.094;2024-03-22T13:18:43;6.88;;;2.30;;
26253;SDS011;53339;51.378;0.094;2024-03-22T13:21:10;6.93;;;2.08;;
26253;SDS011;53339;51.378;0.094;2024-03-22T13:23:37;13.60;;;2.03;;
26253;SDS011;53339;51.378;0.094;2024-03-22T13:26:04;7.82;;;4.53;;
26253;SDS011;53339;51.378;0.094;2024-03-22T13:28:32;11.05;;;4.60;;
26253;SDS011;53339;51.378;0.094;2024-03-22T13:31:00;10.50;;;5.60;;
26253;SDS011;53339;51.378;0.094;2024-03-22T13:33:35;10.35;;;3.50;;
26253;SDS011;53339;51.378;0.094;2024-03-22T13:36:02;10.50;;;5.53;;
26253;SDS011;53339;51.378;0.094;2024-03-22T13:38:30;9.15;;;2.08;;
26253;SDS011;53339;51.378;0.094;2024-03-22T13:40:57;8.32;;;4.07;;
26253;SDS011;53339;51.378;0.094;2024-03-22T13:43:28;10.45;;;2.20;;
26253;SDS011;53339;51.378;0.094;2024-03-22T13:45:54;3.40;;;1.70;;
26253;SDS011;53339;51.378;0.094;2024-03-22T13:48:24;5.85;;;1.88;;
26253;SDS011;53339;51.378;0.094;2024-03-22T13:50:54;8.43;;;2.70;;
26253;SDS011;53339;51.378;0.094;2024-03-22T13:53:21;10.13;;;4.72;;
26253;SDS011;53339;51.378;0.094;2024-03-22T13:55:49;11.63;;;5.65;;
26253;SDS011;53339;51.378;0.094;2024-03-22T13:58:16;10.65;;;2.85;;
26253;SDS011;53339;51.378;0.094;2024-03-22T14:00:44;10.13;;;3.70;;
26253;SDS011;53339;51.378;0.094;2024-03-22T14:03:11;5.93;;;1.42;;
26253;SDS011;53339;51.378;0.094;2024-03-22T14:05:37;6.78;;;2.10;;
26253;SDS011;53339;51.378;0.094;2024-03-22T14:08:04;13.63;;;4.47;;
26253;SDS011;53339;51.378;0.094;2024-03-22T14:10:31;12.23;;;3.95;;
26253;SDS011;53339;51.378;0.094;2024-03-22T14:12:58;9.38;;;3.05;;
26253;SDS011;53339;51.378;0.094;2024-03-22T14:15:25;6.15;;;3.85;;
26253;SDS011;53339;51.378;0.094;2024-03-22T14:17:54;7.47;;;3.70;;
26253;SDS011;53339;51.378;0.094;2024-03-22T14:20:21;10.63;;;4.82;;
26253;SDS011;53339;51.378;0.094;2024-03-22T14:22:48;9.13;;;4.97;;
26253;SDS011;53339;51.378;0.094;2024-03-22T14:25:15;6.75;;;3.65;;
26253;SDS011;53339;51.378;0.094;2024-03-22T14:27:42;11.95;;;4.13;;
26253;SDS011;53339;51.378;0.094;2024-03-22T14:30:12;12.55;;;5.25;;
26253;SDS011;53339;51.378;0.094;2024-03-22T14:32:40;11.65;;;4.60;;
26253;SDS011;53339;51.378;0.094;2024-03-22T14:35:08;10.45;;;2.28;;
26253;SDS011;53339;51.378;0.094;2024-03-22T14:37:35;10.02;;;2.55;;
26253;SDS011;53339;51.378;0.094;2024-03-22T14:40:02;7.00;;;2.30;;
26253;SDS011;53339;51.378;0.094;2024-03-22T14:42:34;10.38;;;4.32;;